Bloomington, IL (61710)

7:13 AM CDT on July 04, 2015 (GMT -0500)
Vap0rz Garage | | Change Station
CLOSE
Current Station
Personal Weather Station
Location: Bloomington, IL
Elevation: 853 ft
Nearby Weather Stations

Elev 853 ft 40.49 °N, 88.96 °W | Updated 28 minutes ago

Clear
Clear
61.9 °F
Feels Like 61.9 °F
N
0.0
Wind Variable Wind from NNW
Gusts 0.0 mph

Today
High -- | Low -- °F
--% Chance of Precip.
Yesterday
High -- | Low -- °F
Precip. -- in
5:30 AM 8:29 PM
Waning Gibbous, 92% visible
Pressure 29.99 in
Visibility 8.0 miles
Clouds Clear
Dew Point 59 °F
Humidity 90%
Rainfall 0.00 in
Snow Depth Not available.
UV 1 out of 12
Pollen 4.10 out of 12
Air Quality Not available.
Flu Activity Not available.
METAR KBMI 041156Z 00000KT 8SM CLR 17/15 A3001 RMK AO2 53009 T01660150 10188 20155 SLP153

More Conditions Fewer Conditions

Pressure 29.99 in
Visibility 8.0 miles
Clouds Clear
Dew Point 59 °F
Humidity 90%
Rainfall 0.00 in
Snow Depth Not available.
UV 1 out of 12
Pollen 4.10 out of 12
Air Quality Not available.
Flu Activity Not available.
METAR KBMI 041156Z 00000KT 8SM CLR 17/15 A3001 RMK AO2 53009 T01660150 10188 20155 SLP153

More Conditions Fewer Conditions

10-Day Weather Forecast

×

Almanac

Astronomy

Jul. 04, 2015 Rise Set
Actual Time
Civil Twilight
Nautical Twilight
Astronomical Twilight
Moon
Length of Visible Light
Length of Day
Tomorrow will be .
, % of the Moon is Illuminated

Today's Extremes

State Highs State Lows

Community

WunderPhotos

Upload Photos

1,834,946 photos uploaded!

WunderBlogs® & News

Nearby

Air Quality

  Air Quality AQ Index Pollutant
Not available.

Snow Depth

Station Depth Elevation

Earthquake Activity

City Distance Mag. Time & Date
Minimum magnitude displayed is 2.5.

Coastal Water Temperatures

Place Temperature

Stations

Nearby Weather Stations

Station Location Temp. Windchill Dew Point Humidity Wind Precip. Elev Updated Type